Time;durP1;ratioP1;P1;durP2;ratioP2;P2;SDS_P1;SDS_P2;PMS_P1;PMS_P2;Temp;Humidity;BMP_temperature;BMP_pressure;BME280_temperature;BME280_humidity;BME280_pressure;Samples;Min_cycle;Max_cycle;Signal;HPM_P1;HPM_P2
2023/09/12 00:01:47;;;;;;;4.38;1.73;;;;;;;;;;5008507;28;20065;-73
2023/09/12 00:04:13;;;;;;;5.05;1.50;;;;;;;;;;5008479;28;20040;-73
2023/09/12 00:06:38;;;;;;;3.60;1.50;;;;;;;;;;5008754;28;20042;-72
2023/09/12 00:09:05;;;;;;;6.95;1.63;;;;;;;;;;5023348;28;20026;-73
2023/09/12 00:11:31;;;;;;;4.90;1.60;;;;;;;;;;5008353;28;20037;-73
2023/09/12 00:13:59;;;;;;;5.78;1.67;;;;;;;;;;5008352;28;20384;-73
2023/09/12 00:16:25;;;;;;;4.13;1.60;;;;;;;;;;5009381;28;20053;-73
2023/09/12 00:18:50;;;;;;;3.78;1.73;;;;;;;;;;5011975;28;20021;-73
2023/09/12 00:21:16;;;;;;;3.42;1.70;;;;;;;;;;5011524;28;20087;-72
2023/09/12 00:23:42;;;;;;;8.32;1.83;;;;;;;;;;5011554;28;20478;-72
2023/09/12 00:26:08;;;;;;;2.22;1.70;;;;;;;;;;5011624;28;20106;-72
2023/09/12 00:28:34;;;;;;;3.55;1.80;;;;;;;;;;5010462;28;20026;-73
2023/09/12 00:31:00;;;;;;;3.75;1.63;;;;;;;;;;5011519;28;20049;-72
2023/09/12 00:33:26;;;;;;;4.80;1.80;;;;;;;;;;5010173;28;20026;-72
2023/09/12 00:35:51;;;;;;;8.52;1.95;;;;;;;;;;5010334;28;20046;-72
2023/09/12 00:38:17;;;;;;;4.38;2.03;;;;;;;;;;5010245;28;20026;-72
2023/09/12 00:40:43;;;;;;;6.53;1.92;;;;;;;;;;5009981;28;20033;-72
2023/09/12 00:43:10;;;;;;;8.82;2.10;;;;;;;;;;5010025;28;20487;-72
2023/09/12 00:45:36;;;;;;;9.45;2.40;;;;;;;;;;5009964;28;20484;-72
2023/09/12 00:48:04;;;;;;;4.78;1.88;;;;;;;;;;5010027;28;20032;-72
2023/09/12 00:50:31;;;;;;;7.88;2.08;;;;;;;;;;5009863;28;20041;-72
2023/09/12 00:52:57;;;;;;;8.98;2.33;;;;;;;;;;5009811;28;20133;-72
2023/09/12 00:55:23;;;;;;;4.60;1.92;;;;;;;;;;5010076;28;20371;-72
2023/09/12 00:57:51;;;;;;;4.13;1.83;;;;;;;;;;5009955;28;20146;-71
2023/09/12 01:00:17;;;;;;;4.55;2.40;;;;;;;;;;5007490;28;20450;-72
2023/09/12 01:02:45;;;;;;;9.20;2.42;;;;;;;;;;5009526;28;20075;-72
2023/09/12 01:05:14;;;;;;;18.33;3.20;;;;;;;;;;5009703;28;20471;-72
2023/09/12 01:07:40;;;;;;;11.20;2.85;;;;;;;;;;5010656;28;20487;-72
2023/09/12 01:10:06;;;;;;;10.10;2.55;;;;;;;;;;5010118;28;20052;-72
2023/09/12 01:12:32;;;;;;;16.83;2.83;;;;;;;;;;5010520;28;20459;-72
2023/09/12 01:14:58;;;;;;;10.45;2.40;;;;;;;;;;5008947;28;20038;-72
2023/09/12 01:17:25;;;;;;;7.32;2.22;;;;;;;;;;5009238;28;20090;-72
2023/09/12 01:19:51;;;;;;;8.73;2.20;;;;;;;;;;5008797;28;20029;-72
2023/09/12 01:22:51;;;;;;;4.68;1.92;;;;;;;;;;5009163;28;20030;-73
2023/09/12 01:25:38;;;;;;;7.80;2.08;;;;;;;;;;5010222;28;20038;-73
2023/09/12 01:28:07;;;;;;;4.47;1.80;;;;;;;;;;5009164;28;20037;-73
2023/09/12 01:30:34;;;;;;;4.72;2.33;;;;;;;;;;5009975;28;20418;-73
2023/09/12 01:33:01;;;;;;;3.92;2.25;;;;;;;;;;5009261;28;20178;-73
2023/09/12 01:35:27;;;;;;;5.22;2.65;;;;;;;;;;5008997;28;20021;-73
2023/09/12 01:37:54;;;;;;;28.50;2.65;;;;;;;;;;5008693;28;20042;-73
2023/09/12 01:40:31;;;;;;;4.32;2.25;;;;;;;;;;5007700;28;20121;-73
2023/09/12 01:42:57;;;;;;;8.57;2.90;;;;;;;;;;5009807;28;20026;-73
2023/09/12 01:45:23;;;;;;;6.97;2.30;;;;;;;;;;5009636;28;20049;-73
2023/09/12 01:47:50;;;;;;;6.03;2.20;;;;;;;;;;5009616;28;20037;-73
2023/09/12 01:50:17;;;;;;;5.15;2.20;;;;;;;;;;5008534;28;20025;-73
2023/09/12 01:52:43;;;;;;;4.40;2.20;;;;;;;;;;5006954;28;20062;-73
2023/09/12 01:55:11;;;;;;;7.40;2.50;;;;;;;;;;5009473;28;20126;-73
2023/09/12 01:57:38;;;;;;;4.88;2.55;;;;;;;;;;5008221;28;20121;-73
2023/09/12 02:00:04;;;;;;;4.72;2.08;;;;;;;;;;5007759;28;20094;-73
2023/09/12 02:02:31;;;;;;;5.35;2.40;;;;;;;;;;5009074;28;20026;-73
2023/09/12 02:05:08;;;;;;;7.82;2.40;;;;;;;;;;5027802;28;20059;-72
2023/09/12 02:07:37;;;;;;;12.55;3.10;;;;;;;;;;4992993;28;20089;-73
2023/09/12 02:10:04;;;;;;;6.32;2.70;;;;;;;;;;4988579;28;20414;-73
2023/09/12 02:12:31;;;;;;;7.78;2.75;;;;;;;;;;5021133;28;20058;-73
2023/09/12 02:14:57;;;;;;;4.20;2.10;;;;;;;;;;4988414;28;20068;-73
2023/09/12 02:17:23;;;;;;;4.72;2.47;;;;;;;;;;5007623;28;20026;-73
2023/09/12 02:19:49;;;;;;;7.53;2.75;;;;;;;;;;5007639;28;20030;-73
2023/09/12 02:22:14;;;;;;;5.28;2.10;;;;;;;;;;5007988;28;20072;-73
2023/09/12 02:24:40;;;;;;;7.22;2.20;;;;;;;;;;5007714;28;20429;-73
2023/09/12 02:27:06;;;;;;;10.55;2.90;;;;;;;;;;5009240;28;20069;-73
2023/09/12 02:29:32;;;;;;;5.80;2.50;;;;;;;;;;5007678;28;20121;-73
2023/09/12 02:31:58;;;;;;;6.75;2.67;;;;;;;;;;5007704;28;20506;-73
2023/09/12 02:34:24;;;;;;;8.93;2.25;;;;;;;;;;5007512;28;20030;-72
2023/09/12 02:36:50;;;;;;;8.35;2.55;;;;;;;;;;5007758;28;20495;-73
2023/09/12 02:39:16;;;;;;;11.57;2.53;;;;;;;;;;5007016;28;20125;-73
2023/09/12 02:41:41;;;;;;;12.57;2.15;;;;;;;;;;5007581;28;20087;-73
2023/09/12 02:44:07;;;;;;;4.45;2.03;;;;;;;;;;5007476;28;20045;-72
2023/09/12 02:46:33;;;;;;;5.65;2.33;;;;;;;;;;5008775;28;20045;-73
2023/09/12 02:48:59;;;;;;;4.50;2.28;;;;;;;;;;5008841;28;20026;-73
2023/09/12 02:51:28;;;;;;;6.05;2.35;;;;;;;;;;5006829;28;20061;-73
2023/09/12 02:53:54;;;;;;;6.80;2.88;;;;;;;;;;5007400;28;20045;-73
2023/09/12 02:56:20;;;;;;;4.53;2.15;;;;;;;;;;5007515;28;20033;-73
2023/09/12 02:58:46;;;;;;;6.55;2.28;;;;;;;;;;5008788;28;20037;-72
2023/09/12 03:01:18;;;;;;;3.90;1.92;;;;;;;;;;5008464;28;20040;-73
2023/09/12 03:03:48;;;;;;;4.28;2.25;;;;;;;;;;5007210;28;20044;-72
2023/09/12 03:06:15;;;;;;;4.57;1.98;;;;;;;;;;5007170;28;20040;-72
2023/09/12 03:08:42;;;;;;;8.32;2.35;;;;;;;;;;5007579;28;20052;-72
2023/09/12 03:11:07;;;;;;;5.75;2.50;;;;;;;;;;5023664;28;20418;-72
2023/09/12 03:13:34;;;;;;;10.75;3.13;;;;;;;;;;5007172;28;20049;-74
2023/09/12 03:16:00;;;;;;;11.07;2.45;;;;;;;;;;5007189;28;20044;-72
2023/09/12 03:18:27;;;;;;;7.00;2.25;;;;;;;;;;5007136;28;20030;-73
2023/09/12 03:20:54;;;;;;;6.40;2.30;;;;;;;;;;5007103;28;20053;-73
2023/09/12 03:23:20;;;;;;;8.15;2.13;;;;;;;;;;5007100;28;20078;-73
2023/09/12 03:25:46;;;;;;;3.88;2.38;;;;;;;;;;5007151;28;20030;-73
2023/09/12 03:28:13;;;;;;;12.85;3.30;;;;;;;;;;5006982;28;20038;-73
2023/09/12 03:30:39;;;;;;;18.70;4.13;;;;;;;;;;5006705;28;20034;-72
2023/09/12 03:33:06;;;;;;;18.38;4.00;;;;;;;;;;5006836;28;20038;-73
2023/09/12 03:35:33;;;;;;;15.88;3.40;;;;;;;;;;5006639;28;20032;-73
2023/09/12 03:38:00;;;;;;;5.55;2.50;;;;;;;;;;5006765;28;20075;-73
2023/09/12 03:40:29;;;;;;;10.20;3.38;;;;;;;;;;5006405;28;20372;-73
2023/09/12 03:42:55;;;;;;;13.25;2.80;;;;;;;;;;5007730;28;20034;-73
2023/09/12 03:45:21;;;;;;;9.30;2.80;;;;;;;;;;5006686;28;20034;-73
2023/09/12 03:47:46;;;;;;;38.78;4.55;;;;;;;;;;5008370;28;20535;-73
2023/09/12 03:50:14;;;;;;;34.22;4.90;;;;;;;;;;5003214;28;20038;-74
2023/09/12 03:52:40;;;;;;;29.50;4.70;;;;;;;;;;4991133;28;20499;-73
2023/09/12 03:55:06;;;;;;;17.55;3.47;;;;;;;;;;4990364;28;20030;-72
2023/09/12 03:57:33;;;;;;;11.27;3.10;;;;;;;;;;4990336;28;20073;-73
2023/09/12 03:59:59;;;;;;;7.78;2.60;;;;;;;;;;4991448;28;20069;-72
2023/09/12 04:02:25;;;;;;;9.07;2.90;;;;;;;;;;4990170;28;20026;-73
2023/09/12 04:04:51;;;;;;;18.33;3.75;;;;;;;;;;4991506;28;20060;-73
2023/09/12 04:07:18;;;;;;;26.92;5.53;;;;;;;;;;4990230;28;20034;-73
2023/09/12 04:09:43;;;;;;;5.85;2.55;;;;;;;;;;5006281;28;20041;-73
2023/09/12 04:12:09;;;;;;;9.80;3.13;;;;;;;;;;4991134;28;20042;-73
2023/09/12 04:14:35;;;;;;;8.52;2.97;;;;;;;;;;4990457;28;20121;-72
2023/09/12 04:17:02;;;;;;;13.95;3.30;;;;;;;;;;5023885;28;20536;-73
2023/09/12 04:19:28;;;;;;;11.55;2.78;;;;;;;;;;5006830;28;20034;-74
2023/09/12 04:21:54;;;;;;;13.35;3.83;;;;;;;;;;4979587;28;20030;-73
2023/09/12 04:24:20;;;;;;;9.77;2.88;;;;;;;;;;5009368;28;20390;-73
2023/09/12 04:26:48;;;;;;;14.90;3.55;;;;;;;;;;5005047;28;20115;-72
2023/09/12 04:29:13;;;;;;;11.77;2.92;;;;;;;;;;4992136;28;20037;-73
2023/09/12 04:31:39;;;;;;;12.50;3.20;;;;;;;;;;4993158;28;20033;-73
2023/09/12 04:34:06;;;;;;;12.88;3.33;;;;;;;;;;5009787;28;20021;-73
2023/09/12 04:36:31;;;;;;;13.73;3.10;;;;;;;;;;5009652;28;20331;-73
2023/09/12 04:38:57;;;;;;;11.70;3.58;;;;;;;;;;5009617;28;20022;-73
2023/09/12 04:41:23;;;;;;;15.50;2.95;;;;;;;;;;5010751;28;20109;-72
2023/09/12 04:43:50;;;;;;;20.27;3.67;;;;;;;;;;5010925;28;20037;-73
2023/09/12 04:46:16;;;;;;;13.25;3.30;;;;;;;;;;5006784;28;20381;-73
2023/09/12 04:48:41;;;;;;;23.30;4.18;;;;;;;;;;4991006;28;20092;-72
2023/09/12 04:51:08;;;;;;;8.38;2.47;;;;;;;;;;5009649;28;20137;-73
2023/09/12 04:53:35;;;;;;;7.82;2.47;;;;;;;;;;4993123;28;20030;-73
2023/09/12 04:56:06;;;;;;;17.33;3.35;;;;;;;;;;5009185;28;20034;-73
2023/09/12 04:58:33;;;;;;;6.00;2.30;;;;;;;;;;5006732;28;20039;-73
2023/09/12 05:00:59;;;;;;;10.18;2.30;;;;;;;;;;4986906;28;20033;-71
2023/09/12 05:03:25;;;;;;;9.52;2.72;;;;;;;;;;5012505;28;20030;-72
2023/09/12 05:05:52;;;;;;;11.63;2.40;;;;;;;;;;5010376;28;20025;-71
2023/09/12 05:08:18;;;;;;;9.05;2.28;;;;;;;;;;5008686;28;20060;-73
2023/09/12 05:10:45;;;;;;;8.82;2.20;;;;;;;;;;5008716;28;20478;-73
2023/09/12 05:13:10;;;;;;;3.70;2.30;;;;;;;;;;5007271;28;20502;-71
2023/09/12 05:15:39;;;;;;;11.85;3.60;;;;;;;;;;5008477;28;20029;-71
2023/09/12 05:18:06;;;;;;;25.42;4.55;;;;;;;;;;5008741;28;20061;-72
2023/09/12 05:20:36;;;;;;;8.00;2.42;;;;;;;;;;5007944;28;20022;-72
2023/09/12 05:23:03;;;;;;;35.20;4.95;;;;;;;;;;5006740;28;20117;-73
2023/09/12 05:25:30;;;;;;;6.35;2.38;;;;;;;;;;5007990;28;20116;-73
2023/09/12 05:27:56;;;;;;;12.18;2.75;;;;;;;;;;5008408;28;20040;-71
2023/09/12 05:30:22;;;;;;;9.60;2.70;;;;;;;;;;5007981;28;20022;-72
2023/09/12 05:32:48;;;;;;;7.65;2.58;;;;;;;;;;5008484;28;20079;-74
2023/09/12 05:35:14;;;;;;;22.27;3.90;;;;;;;;;;5008036;28;20037;-71
2023/09/12 05:37:40;;;;;;;13.85;2.50;;;;;;;;;;5008108;28;20116;-71
2023/09/12 05:40:07;;;;;;;7.03;2.50;;;;;;;;;;5009456;28;20101;-72
2023/09/12 05:42:32;;;;;;;27.08;3.85;;;;;;;;;;5007917;28;20140;-73
2023/09/12 05:44:58;;;;;;;11.27;2.30;;;;;;;;;;5007833;28;20030;-70
2023/09/12 05:47:24;;;;;;;7.13;2.78;;;;;;;;;;5007852;28;20068;-71
2023/09/12 05:49:50;;;;;;;4.75;2.60;;;;;;;;;;5007445;28;20049;-70
2023/09/12 05:52:16;;;;;;;8.15;2.53;;;;;;;;;;5007108;28;20151;-70
2023/09/12 05:54:42;;;;;;;25.95;4.15;;;;;;;;;;5007827;28;20091;-70
2023/09/12 05:57:09;;;;;;;9.45;2.53;;;;;;;;;;5007596;28;20105;-71
2023/09/12 05:59:37;;;;;;;15.23;2.92;;;;;;;;;;5007880;28;20021;-70
2023/09/12 06:02:04;;;;;;;10.52;2.55;;;;;;;;;;5007150;28;20057;-70
2023/09/12 06:04:30;;;;;;;8.35;2.45;;;;;;;;;;5007800;28;20026;-71
2023/09/12 06:06:56;;;;;;;6.80;2.58;;;;;;;;;;5009791;28;20506;-70
2023/09/12 06:09:22;;;;;;;10.38;3.08;;;;;;;;;;5024590;28;20030;-72
2023/09/12 06:11:47;;;;;;;5.53;2.63;;;;;;;;;;5009273;28;20055;-71
2023/09/12 06:14:13;;;;;;;11.02;3.10;;;;;;;;;;5004722;28;20067;-71
2023/09/12 06:16:39;;;;;;;7.82;2.75;;;;;;;;;;5009528;28;20086;-71
2023/09/12 06:19:05;;;;;;;8.02;2.80;;;;;;;;;;5008949;28;20489;-71
2023/09/12 06:21:32;;;;;;;7.05;3.15;;;;;;;;;;5008009;28;20033;-71
2023/09/12 06:24:18;;;;;;;10.55;3.63;;;;;;;;;;5009173;28;20018;-71
2023/09/12 06:26:45;;;;;;;7.18;3.10;;;;;;;;;;5000057;28;20506;-72
2023/09/12 06:29:11;;;;;;;5.32;3.13;;;;;;;;;;5023196;28;20030;-71
2023/09/12 06:31:36;;;;;;;19.77;3.80;;;;;;;;;;5008002;28;20050;-71
2023/09/12 06:34:02;;;;;;;9.85;2.75;;;;;;;;;;5008448;28;20037;-70
2023/09/12 06:36:29;;;;;;;7.18;3.13;;;;;;;;;;5008690;28;20479;-72
2023/09/12 06:38:56;;;;;;;15.00;4.20;;;;;;;;;;5023330;28;20028;-71
2023/09/12 06:41:22;;;;;;;9.10;4.10;;;;;;;;;;5007939;28;20041;-71
2023/09/12 06:43:49;;;;;;;9.57;3.72;;;;;;;;;;5007786;28;20109;-71
2023/09/12 06:46:17;;;;;;;8.25;3.47;;;;;;;;;;5010252;28;20077;-71
2023/09/12 06:48:44;;;;;;;14.32;3.35;;;;;;;;;;5006691;28;20063;-70
2023/09/12 06:51:11;;;;;;;9.48;3.58;;;;;;;;;;5008061;28;20037;-71
2023/09/12 06:53:39;;;;;;;9.70;3.25;;;;;;;;;;5008656;28;20491;-71
2023/09/12 06:56:05;;;;;;;8.70;3.30;;;;;;;;;;5008002;28;20469;-71
2023/09/12 06:58:31;;;;;;;8.55;3.08;;;;;;;;;;5007811;28;20051;-71
2023/09/12 07:01:05;;;;;;;12.68;3.53;;;;;;;;;;5007839;28;20488;-71
2023/09/12 07:03:31;;;;;;;18.10;8.52;;;;;;;;;;5008026;28;20026;-70
2023/09/12 07:05:57;;;;;;;25.30;7.72;;;;;;;;;;5008211;28;20105;-71
2023/09/12 07:08:24;;;;;;;20.05;4.90;;;;;;;;;;5008300;28;20133;-71
2023/09/12 07:10:50;;;;;;;8.57;3.13;;;;;;;;;;5008012;28;20057;-72
2023/09/12 07:13:16;;;;;;;6.32;3.33;;;;;;;;;;5007523;28;20487;-71
2023/09/12 07:15:41;;;;;;;24.08;4.85;;;;;;;;;;5008230;28;20552;-71
2023/09/12 07:18:09;;;;;;;8.05;3.50;;;;;;;;;;5008759;28;20034;-71
2023/09/12 07:20:35;;;;;;;8.48;3.72;;;;;;;;;;5010960;28;20099;-71
2023/09/12 07:23:01;;;;;;;5.85;3.05;;;;;;;;;;5006988;28;20463;-71
2023/09/12 07:25:27;;;;;;;10.98;3.45;;;;;;;;;;5006518;28;20167;-71
2023/09/12 07:27:53;;;;;;;12.65;3.60;;;;;;;;;;5011188;28;20026;-71
2023/09/12 07:30:20;;;;;;;14.75;3.55;;;;;;;;;;5011956;28;20176;-71
2023/09/12 07:32:46;;;;;;;7.15;3.90;;;;;;;;;;5011880;28;20048;-71
2023/09/12 07:35:11;;;;;;;9.90;3.40;;;;;;;;;;5011476;28;20018;-72
2023/09/12 07:37:37;;;;;;;9.25;3.30;;;;;;;;;;5011358;28;20045;-72
2023/09/12 07:40:09;;;;;;;14.20;3.50;;;;;;;;;;5012340;28;20063;-72
2023/09/12 07:42:37;;;;;;;8.27;3.33;;;;;;;;;;5012482;28;20497;-72
2023/09/12 07:45:03;;;;;;;8.02;2.80;;;;;;;;;;5011777;28;20082;-70
2023/09/12 07:47:29;;;;;;;6.93;2.83;;;;;;;;;;5011813;28;20048;-70
2023/09/12 07:49:55;;;;;;;11.07;3.30;;;;;;;;;;5011311;28;20481;-71
2023/09/12 07:52:22;;;;;;;11.82;2.92;;;;;;;;;;5009809;28;20287;-71
2023/09/12 07:54:50;;;;;;;6.47;2.63;;;;;;;;;;5010878;28;20026;-70
2023/09/12 07:57:15;;;;;;;12.50;2.28;;;;;;;;;;5011539;28;20037;-71
2023/09/12 07:59:41;;;;;;;9.38;2.72;;;;;;;;;;5012365;28;20431;-71
2023/09/12 08:02:12;;;;;;;5.45;2.20;;;;;;;;;;5011741;28;20038;-70
2023/09/12 08:04:38;;;;;;;7.80;2.13;;;;;;;;;;5011435;28;20025;-71
2023/09/12 08:07:04;;;;;;;9.70;2.60;;;;;;;;;;5011587;28;20392;-72
2023/09/12 08:09:58;;;;;;;6.85;2.10;;;;;;;;;;5011635;28;20569;-71
2023/09/12 08:12:26;;;;;;;4.63;2.10;;;;;;;;;;5011193;28;20034;-71
2023/09/12 08:14:52;;;;;;;10.48;3.40;;;;;;;;;;5011003;28;20044;-71
2023/09/12 08:17:18;;;;;;;6.15;3.08;;;;;;;;;;5011197;28;20505;-70
2023/09/12 08:19:45;;;;;;;8.23;3.67;;;;;;;;;;5010755;28;20022;-71
2023/09/12 08:22:12;;;;;;;15.40;4.18;;;;;;;;;;5011167;28;20061;-71
2023/09/12 08:24:39;;;;;;;13.18;4.35;;;;;;;;;;5010956;28;20029;-71
2023/09/12 08:27:05;;;;;;;11.68;3.08;;;;;;;;;;5010532;28;20134;-70
2023/09/12 08:29:32;;;;;;;7.85;3.53;;;;;;;;;;5011018;28;20030;-71
2023/09/12 08:31:58;;;;;;;8.13;3.65;;;;;;;;;;5011146;28;20360;-70
2023/09/12 08:34:24;;;;;;;29.00;5.10;;;;;;;;;;5025688;28;20029;-71
2023/09/12 08:36:51;;;;;;;9.70;3.30;;;;;;;;;;5010197;28;20030;-71
2023/09/12 08:39:23;;;;;;;6.57;2.60;;;;;;;;;;5010550;28;20058;-71
2023/09/12 08:41:53;;;;;;;6.07;3.00;;;;;;;;;;5011102;28;20061;-70
2023/09/12 08:44:21;;;;;;;20.25;3.80;;;;;;;;;;5010428;28;20267;-70
2023/09/12 08:46:47;;;;;;;6.28;3.30;;;;;;;;;;5010494;28;20471;-72
2023/09/12 08:49:14;;;;;;;10.80;3.85;;;;;;;;;;4992339;28;20041;-71
2023/09/12 08:51:40;;;;;;;10.98;3.58;;;;;;;;;;4990523;28;20109;-70
2023/09/12 08:54:09;;;;;;;8.63;3.30;;;;;;;;;;4989502;28;20057;-70
2023/09/12 08:56:43;;;;;;;8.15;2.28;;;;;;;;;;4991034;28;20114;-70
2023/09/12 08:59:10;;;;;;;11.82;3.55;;;;;;;;;;4990848;28;20034;-72
2023/09/12 09:01:37;;;;;;;6.55;1.83;;;;;;;;;;4990690;28;20076;-71
2023/09/12 09:04:03;;;;;;;8.40;2.65;;;;;;;;;;4990719;28;20537;-70
2023/09/12 09:06:37;;;;;;;9.07;2.78;;;;;;;;;;4990877;28;20026;-71
2023/09/12 09:09:06;;;;;;;22.10;3.75;;;;;;;;;;4990814;28;20329;-71
2023/09/12 09:11:32;;;;;;;8.80;3.38;;;;;;;;;;4989494;28;20053;-71
2023/09/12 09:13:57;;;;;;;7.65;2.67;;;;;;;;;;4990187;28;20080;-70
2023/09/12 09:16:23;;;;;;;7.25;2.97;;;;;;;;;;4990666;28;20114;-70
2023/09/12 09:19:00;;;;;;;15.80;3.60;;;;;;;;;;4990359;28;20042;-70
2023/09/12 09:21:31;;;;;;;4.85;2.58;;;;;;;;;;4991027;28;20034;-71
2023/09/12 09:24:06;;;;;;;9.40;2.05;;;;;;;;;;4989775;28;20066;-72
2023/09/12 09:26:48;;;;;;;10.25;2.53;;;;;;;;;;5004165;28;20490;-71
2023/09/12 09:29:16;;;;;;;9.45;2.83;;;;;;;;;;5010511;28;20117;-71
2023/09/12 09:31:44;;;;;;;5.43;2.10;;;;;;;;;;5009568;28;20022;-71
2023/09/12 09:34:21;;;;;;;4.85;1.85;;;;;;;;;;5008302;28;20097;-71
2023/09/12 09:36:49;;;;;;;6.28;1.67;;;;;;;;;;5009062;28;20042;-71
2023/09/12 09:39:17;;;;;;;3.88;1.83;;;;;;;;;;5008897;28;20037;-71
2023/09/12 09:41:47;;;;;;;4.00;1.90;;;;;;;;;;5007598;28;20044;-71
2023/09/12 09:44:13;;;;;;;8.60;3.10;;;;;;;;;;5009411;28;20071;-72
2023/09/12 09:46:43;;;;;;;5.70;2.42;;;;;;;;;;5010285;28;20394;-71
2023/09/12 09:49:19;;;;;;;5.75;2.40;;;;;;;;;;5009976;28;20388;-70
2023/09/12 09:51:45;;;;;;;9.73;2.55;;;;;;;;;;5009693;28;20125;-71
2023/09/12 09:54:12;;;;;;;9.82;2.42;;;;;;;;;;5009559;28;20109;-72
2023/09/12 09:56:53;;;;;;;5.75;2.15;;;;;;;;;;5009203;28;20034;-72
2023/09/12 09:59:24;;;;;;;7.45;2.40;;;;;;;;;;5008118;28;20106;-70
2023/09/12 10:01:55;;;;;;;5.55;2.13;;;;;;;;;;5009332;28;20460;-72
2023/09/12 10:04:22;;;;;;;4.63;2.22;;;;;;;;;;5008060;28;20072;-72
2023/09/12 10:06:49;;;;;;;7.20;2.13;;;;;;;;;;5008880;28;20026;-71
2023/09/12 10:09:16;;;;;;;6.70;2.17;;;;;;;;;;5008059;28;20067;-71
2023/09/12 10:11:48;;;;;;;4.53;2.05;;;;;;;;;;5009467;28;20418;-71
2023/09/12 10:14:17;;;;;;;3.20;1.73;;;;;;;;;;5008960;28;20431;-71
2023/09/12 10:16:46;;;;;;;5.90;1.60;;;;;;;;;;5011126;28;20048;-71
2023/09/12 10:19:16;;;;;;;10.98;2.85;;;;;;;;;;5010888;28;20038;-71
2023/09/12 10:22:17;;;;;;;5.05;2.00;;;;;;;;;;5012129;28;20049;-71
2023/09/12 10:24:45;;;;;;;4.20;1.88;;;;;;;;;;5034782;28;20491;-71
2023/09/12 10:27:13;;;;;;;4.53;1.98;;;;;;;;;;5007357;28;20030;-71
2023/09/12 10:29:39;;;;;;;4.28;1.80;;;;;;;;;;5012122;28;20290;-71
2023/09/12 10:32:05;;;;;;;3.45;1.85;;;;;;;;;;5010482;28;20036;-73
2023/09/12 10:34:34;;;;;;;3.03;1.70;;;;;;;;;;5009137;28;20042;-71
2023/09/12 10:37:04;;;;;;;6.50;1.95;;;;;;;;;;5010065;28;20380;-70
2023/09/12 10:39:32;;;;;;;8.98;1.80;;;;;;;;;;5010083;28;20109;-72
2023/09/12 10:41:59;;;;;;;8.82;2.10;;;;;;;;;;5025570;28;20127;-71
2023/09/12 10:44:26;;;;;;;3.80;1.60;;;;;;;;;;5008159;28;20461;-71
2023/09/12 10:46:56;;;;;;;5.18;1.80;;;;;;;;;;5009501;28;20079;-71
2023/09/12 10:49:22;;;;;;;5.18;1.70;;;;;;;;;;5009240;28;20056;-72
2023/09/12 10:51:48;;;;;;;4.90;1.60;;;;;;;;;;5007899;28;20450;-71
2023/09/12 10:54:22;;;;;;;6.68;1.90;;;;;;;;;;5009323;28;20030;-71
2023/09/12 10:57:03;;;;;;;6.05;1.88;;;;;;;;;;5024449;28;20437;-71
2023/09/12 10:59:31;;;;;;;8.70;2.55;;;;;;;;;;5008617;28;20048;-71
2023/09/12 11:02:36;;;;;;;9.82;2.63;;;;;;;;;;5008683;28;20155;-72
2023/09/12 11:05:07;;;;;;;3.05;1.60;;;;;;;;;;5009130;28;20041;-71
2023/09/12 11:07:39;;;;;;;5.65;2.30;;;;;;;;;;5008775;28;20038;-71
2023/09/12 11:10:15;;;;;;;8.02;2.55;;;;;;;;;;5008576;28;20049;-70
2023/09/12 11:12:41;;;;;;;15.65;3.33;;;;;;;;;;5008300;28;20041;-71
2023/09/12 11:15:10;;;;;;;4.28;2.10;;;;;;;;;;5009011;28;20407;-71
2023/09/12 11:17:40;;;;;;;3.60;1.90;;;;;;;;;;5008495;28;20534;-70
2023/09/12 11:20:10;;;;;;;6.40;2.50;;;;;;;;;;5007451;28;20132;-71
2023/09/12 11:22:42;;;;;;;4.53;1.88;;;;;;;;;;5008362;28;20030;-71
2023/09/12 11:25:28;;;;;;;8.90;2.63;;;;;;;;;;5008492;28;20083;-69
2023/09/12 11:27:54;;;;;;;8.23;2.22;;;;;;;;;;5008165;28;20038;-71
2023/09/12 11:30:21;;;;;;;6.75;2.45;;;;;;;;;;5008619;28;20030;-72
2023/09/12 11:32:50;;;;;;;4.65;2.42;;;;;;;;;;5008685;28;20038;-68
2023/09/12 11:35:21;;;;;;;9.52;2.58;;;;;;;;;;5008362;28;20029;-71
2023/09/12 11:37:53;;;;;;;12.27;2.38;;;;;;;;;;5008875;28;20062;-71
2023/09/12 11:40:34;;;;;;;8.00;2.55;;;;;;;;;;5008275;28;20109;-72
2023/09/12 11:43:00;;;;;;;6.60;2.50;;;;;;;;;;5008595;28;20042;-71
2023/09/12 11:45:27;;;;;;;6.32;2.13;;;;;;;;;;5008302;28;20477;-71
2023/09/12 11:47:54;;;;;;;3.90;2.08;;;;;;;;;;5008408;28;20374;-70
2023/09/12 11:50:35;;;;;;;10.85;2.92;;;;;;;;;;5008049;28;20033;-72
2023/09/12 11:53:07;;;;;;;3.78;2.30;;;;;;;;;;5008146;28;20058;-71
2023/09/12 11:55:53;;;;;;;6.68;2.10;;;;;;;;;;5010211;28;20053;-71
2023/09/12 11:58:19;;;;;;;7.03;2.35;;;;;;;;;;5005499;28;20033;-71
2023/09/12 12:00:46;;;;;;;4.32;1.85;;;;;;;;;;5004391;28;20025;-71
2023/09/12 12:03:14;;;;;;;7.88;2.28;;;;;;;;;;5022993;28;20370;-72
2023/09/12 12:05:40;;;;;;;8.82;2.63;;;;;;;;;;5007166;28;20487;-70
2023/09/12 12:08:13;;;;;;;11.63;2.53;;;;;;;;;;5002502;28;20117;-70
2023/09/12 12:10:40;;;;;;;5.55;2.17;;;;;;;;;;5006810;28;20025;-70
2023/09/12 12:13:11;;;;;;;5.70;1.90;;;;;;;;;;5007097;28;20022;-72
2023/09/12 12:15:36;;;;;;;6.38;2.22;;;;;;;;;;5009416;28;20034;-71
2023/09/12 12:18:02;;;;;;;3.70;1.90;;;;;;;;;;5010656;28;20085;-70
2023/09/12 12:20:29;;;;;;;10.00;2.42;;;;;;;;;;5025906;28;20033;-70
2023/09/12 12:22:57;;;;;;;4.85;2.10;;;;;;;;;;5010838;28;20086;-72
2023/09/12 12:25:23;;;;;;;7.22;1.98;;;;;;;;;;5010798;28;20033;-72
2023/09/12 12:27:49;;;;;;;5.22;1.80;;;;;;;;;;5010734;28;20045;-69
2023/09/12 12:30:19;;;;;;;2.53;1.48;;;;;;;;;;5010076;28;20040;-70
2023/09/12 12:32:46;;;;;;;4.03;2.00;;;;;;;;;;5010579;28;20037;-71
2023/09/12 12:35:19;;;;;;;9.48;2.20;;;;;;;;;;5010737;28;20159;-70
2023/09/12 12:37:45;;;;;;;;;;;;;;;;;;5007402;28;20409;-72
2023/09/12 12:40:15;;;;;;;4.25;1.70;;;;;;;;;;5008083;28;19917;-72
2023/09/12 12:42:42;;;;;;;11.35;2.75;;;;;;;;;;5011263;28;20072;-70
2023/09/12 12:45:23;;;;;;;5.45;1.70;;;;;;;;;;5013567;28;20034;-70
2023/09/12 12:47:59;;;;;;;10.50;3.00;;;;;;;;;;5008223;28;20038;-70
2023/09/12 12:50:25;;;;;;;11.32;2.78;;;;;;;;;;5010099;28;20037;-71
2023/09/12 12:52:51;;;;;;;6.82;1.35;;;;;;;;;;5010811;28;20041;-71
2023/09/12 12:55:19;;;;;;;2.42;1.40;;;;;;;;;;5008797;28;20041;-71
2023/09/12 12:57:47;;;;;;;2.95;1.60;;;;;;;;;;5010632;28;20030;-71
2023/09/12 13:00:15;;;;;;;7.20;1.63;;;;;;;;;;5009763;28;20049;-70
2023/09/12 13:02:42;;;;;;;6.93;1.90;;;;;;;;;;5010364;28;20113;-70
2023/09/12 13:05:21;;;;;;;10.18;2.00;;;;;;;;;;5010810;28;20061;-71
2023/09/12 13:07:48;;;;;;;4.28;1.40;;;;;;;;;;5010734;28;20049;-71
2023/09/12 13:10:14;;;;;;;6.65;1.90;;;;;;;;;;5010468;28;20073;-70
2023/09/12 13:12:40;;;;;;;9.05;2.45;;;;;;;;;;5026044;28;20116;-71
2023/09/12 13:15:06;;;;;;;4.40;1.77;;;;;;;;;;5010622;28;20033;-71
2023/09/12 13:17:34;;;;;;;7.68;2.60;;;;;;;;;;5008095;28;20052;-70
2023/09/12 13:19:59;;;;;;;6.10;3.15;;;;;;;;;;5010544;28;20038;-70
2023/09/12 13:22:25;;;;;;;6.63;1.95;;;;;;;;;;5009336;28;20045;-70
2023/09/12 13:24:50;;;;;;;11.23;3.53;;;;;;;;;;5010126;28;20018;-70
2023/09/12 13:27:16;;;;;;;3.08;1.33;;;;;;;;;;5003274;28;20061;-70
2023/09/12 13:29:42;;;;;;;4.45;1.42;;;;;;;;;;5006282;28;20082;-70
2023/09/12 13:32:09;;;;;;;3.70;1.60;;;;;;;;;;5009682;28;20033;-71
2023/09/12 13:34:36;;;;;;;2.25;1.58;;;;;;;;;;5009322;28;20761;-70
2023/09/12 13:37:02;;;;;;;5.65;1.65;;;;;;;;;;5009986;28;20046;-70
2023/09/12 13:39:29;;;;;;;10.70;1.70;;;;;;;;;;5010366;28;20103;-71
2023/09/12 13:41:57;;;;;;;2.85;1.63;;;;;;;;;;5010290;28;20029;-71
2023/09/12 13:44:23;;;;;;;5.43;1.50;;;;;;;;;;5010563;28;20046;-71
2023/09/12 13:46:49;;;;;;;7.43;2.17;;;;;;;;;;5010174;28;20085;-71
2023/09/12 13:49:14;;;;;;;7.93;1.90;;;;;;;;;;5010593;28;20029;-69
2023/09/12 13:51:40;;;;;;;5.13;1.63;;;;;;;;;;5026060;28;20042;-71
2023/09/12 13:54:14;;;;;;;3.67;1.60;;;;;;;;;;5010730;28;20163;-71
2023/09/12 13:56:40;;;;;;;4.50;1.90;;;;;;;;;;5024242;28;20129;-72
2023/09/12 13:59:06;;;;;;;8.07;2.22;;;;;;;;;;5004959;28;20038;-70
2023/09/12 14:01:34;;;;;;;7.25;1.95;;;;;;;;;;5005716;28;20030;-72
2023/09/12 14:03:59;;;;;;;8.68;2.05;;;;;;;;;;5009585;28;20715;-70
2023/09/12 14:06:25;;;;;;;5.07;2.33;;;;;;;;;;5010057;28;20261;-71
2023/09/12 14:08:52;;;;;;;5.78;1.75;;;;;;;;;;5009838;28;20030;-71
2023/09/12 14:11:18;;;;;;;2.60;1.35;;;;;;;;;;5009439;28;20042;-72
2023/09/12 14:13:43;;;;;;;4.30;1.73;;;;;;;;;;5005724;28;20785;-71
2023/09/12 14:16:09;;;;;;;11.70;2.10;;;;;;;;;;5008802;28;20466;-70
2023/09/12 14:18:35;;;;;;;6.97;1.55;;;;;;;;;;5009388;28;20037;-71
2023/09/12 14:21:01;;;;;;;4.60;1.63;;;;;;;;;;5009020;28;20372;-71
2023/09/12 14:23:26;;;;;;;6.00;1.55;;;;;;;;;;5008970;28;20387;-71
2023/09/12 14:25:52;;;;;;;7.30;1.73;;;;;;;;;;5008601;28;20033;-70
2023/09/12 14:28:18;;;;;;;3.03;1.80;;;;;;;;;;5008894;28;20030;-71
2023/09/12 14:30:48;;;;;;;11.77;2.28;;;;;;;;;;5023560;28;20042;-70
2023/09/12 14:33:14;;;;;;;3.60;1.60;;;;;;;;;;5009087;28;20152;-71
2023/09/12 14:35:41;;;;;;;24.05;3.35;;;;;;;;;;5006759;28;20050;-71
2023/09/12 14:38:07;;;;;;;5.05;1.35;;;;;;;;;;5006901;28;20065;-70
2023/09/12 14:40:34;;;;;;;3.33;1.40;;;;;;;;;;5007164;28;20018;-71
2023/09/12 14:43:00;;;;;;;5.70;1.80;;;;;;;;;;5009386;28;20072;-71
2023/09/12 14:45:28;;;;;;;3.67;1.42;;;;;;;;;;5009081;28;20053;-71